createdAt,value
2022-09-21T00:01:44.383Z,11.57
2022-09-21T00:04:13.474Z,10.65
2022-09-21T00:06:42.283Z,10.75
2022-09-21T00:09:12.623Z,11.54
2022-09-21T00:11:41.660Z,10.66
2022-09-21T00:14:14.910Z,11.42
2022-09-21T00:16:44.989Z,11.05
2022-09-21T00:19:14.334Z,11.46
2022-09-21T00:21:43.297Z,11.81
2022-09-21T00:24:13.642Z,10.79
2022-09-21T00:26:42.532Z,11.75
2022-09-21T00:29:14.107Z,11.29
2022-09-21T00:31:43.063Z,11.84
2022-09-21T00:34:12.032Z,11.95
2022-09-21T00:36:40.894Z,12.00
2022-09-21T00:39:12.540Z,11.71
2022-09-21T00:41:41.371Z,12.01
2022-09-21T00:44:29.955Z,12.01
2022-09-21T00:47:05.981Z,12.21
2022-09-21T00:49:36.582Z,12.13
2022-09-21T00:52:08.491Z,11.90
2022-09-21T00:54:46.605Z,12.48
2022-09-21T00:57:17.186Z,12.52
2022-09-21T00:59:47.168Z,12.45
2022-09-21T01:02:16.204Z,12.46
2022-09-21T01:04:46.004Z,12.33
2022-09-21T01:07:20.123Z,12.43
2022-09-21T01:09:56.321Z,12.43
2022-09-21T01:12:45.569Z,12.40
2022-09-21T01:15:38.739Z,11.81
2022-09-21T01:18:20.504Z,12.51
2022-09-21T01:21:18.431Z,12.52
2022-09-21T01:24:24.691Z,12.52
2022-09-21T01:27:43.265Z,12.53
2022-09-21T01:30:16.851Z,12.50
2022-09-21T01:32:53.422Z,12.33
2022-09-21T01:35:28.244Z,12.25
2022-09-21T01:38:03.081Z,11.74
2022-09-21T01:40:38.602Z,12.44
2022-09-21T01:43:10.875Z,12.18
2022-09-21T01:45:48.214Z,12.34
2022-09-21T01:48:19.918Z,12.38
2022-09-21T01:50:56.186Z,12.41
2022-09-21T01:53:32.167Z,12.10
2022-09-21T01:56:08.908Z,12.20
2022-09-21T01:58:43.935Z,11.61
2022-09-21T02:01:19.738Z,12.23
2022-09-21T02:03:52.828Z,12.08
2022-09-21T02:06:22.075Z,12.20
2022-09-21T02:08:51.207Z,12.26
2022-09-21T02:11:19.681Z,12.10
2022-09-21T02:13:52.280Z,12.01
2022-09-21T02:16:37.613Z,12.11
2022-09-21T02:19:15.835Z,12.10
2022-09-21T02:22:12.687Z,12.05
2022-09-21T02:24:44.768Z,12.07
2022-09-21T02:27:29.178Z,11.99
2022-09-21T02:30:07.618Z,11.85
2022-09-21T02:32:51.445Z,11.99
2022-09-21T02:35:32.836Z,12.08
2022-09-21T02:38:12.195Z,11.94
2022-09-21T02:40:51.475Z,12.01
2022-09-21T02:43:23.893Z,11.59
2022-09-21T02:45:58.915Z,12.04
2022-09-21T02:48:35.452Z,11.92
2022-09-21T02:51:11.308Z,11.26
2022-09-21T02:53:42.875Z,12.02
2022-09-21T02:56:12.280Z,11.12
2022-09-21T02:58:44.879Z,11.86
2022-09-21T03:01:15.910Z,11.57
2022-09-21T03:03:45.935Z,12.15
2022-09-21T03:06:14.609Z,11.97
2022-09-21T03:08:43.267Z,11.65
2022-09-21T03:11:12.519Z,11.75
2022-09-21T03:13:41.126Z,11.91
2022-09-21T03:16:09.815Z,11.16
2022-09-21T03:18:39.396Z,11.67
2022-09-21T03:21:10.023Z,11.65
2022-09-21T03:23:38.479Z,11.47
2022-09-21T03:26:07.393Z,11.66
2022-09-21T03:28:36.092Z,11.61
2022-09-21T03:31:06.757Z,11.62
2022-09-21T03:33:35.302Z,11.61
2022-09-21T03:36:04.249Z,11.46
2022-09-21T03:38:34.169Z,11.60
2022-09-21T03:41:02.740Z,11.57
2022-09-21T03:43:31.307Z,11.27
2022-09-21T03:45:59.850Z,11.59
2022-09-21T03:48:28.384Z,11.46
2022-09-21T03:50:56.862Z,11.51
2022-09-21T03:53:25.232Z,11.49
2022-09-21T03:55:55.274Z,11.43
2022-09-21T03:58:23.754Z,11.37
2022-09-21T04:00:52.856Z,11.38
2022-09-21T04:03:21.227Z,11.17
2022-09-21T04:05:51.445Z,11.14
2022-09-21T04:08:19.999Z,11.21
2022-09-21T04:10:48.520Z,11.34
2022-09-21T04:13:18.311Z,11.29
2022-09-21T04:15:46.710Z,10.63
2022-09-21T04:18:15.119Z,11.10
2022-09-21T04:20:43.527Z,11.22
2022-09-21T04:23:12.840Z,11.03
2022-09-21T04:25:41.932Z,11.18
2022-09-21T04:28:10.398Z,10.93
2022-09-21T04:30:40.342Z,10.55
2022-09-21T04:33:08.900Z,11.20
2022-09-21T04:35:39.059Z,10.49
2022-09-21T04:38:07.709Z,11.17
2022-09-21T04:40:36.390Z,10.60
2022-09-21T04:43:04.927Z,10.90
2022-09-21T04:45:34.586Z,10.97
2022-09-21T04:48:04.610Z,10.61
2022-09-21T04:50:33.200Z,10.75
2022-09-21T04:53:05.927Z,10.99
2022-09-21T04:55:34.476Z,10.80
2022-09-21T04:58:02.971Z,11.00
2022-09-21T05:00:31.844Z,10.13
2022-09-21T05:03:00.246Z,10.82
2022-09-21T05:05:30.107Z,10.89
2022-09-21T05:07:58.748Z,10.61
2022-09-21T05:10:26.182Z,10.72
2022-09-21T05:12:54.736Z,10.82
2022-09-21T05:15:23.212Z,10.73
2022-09-21T05:17:52.652Z,10.83
2022-09-21T05:20:21.132Z,10.20
2022-09-21T05:22:51.225Z,10.46
2022-09-21T05:25:19.641Z,10.39
2022-09-21T05:27:48.195Z,10.71
2022-09-21T05:30:17.971Z,10.53
2022-09-21T05:32:57.175Z,10.76
2022-09-21T05:35:36.701Z,9.95
2022-09-21T05:38:13.963Z,10.70
2022-09-21T05:40:43.130Z,10.50
2022-09-21T05:43:12.646Z,10.66
2022-09-21T05:45:47.733Z,10.61
2022-09-21T05:48:20.680Z,9.70
2022-09-21T05:51:02.557Z,10.70
2022-09-21T05:53:51.548Z,10.75
2022-09-21T05:56:35.632Z,10.78
2022-09-21T05:59:26.280Z,10.71
2022-09-21T06:02:06.443Z,10.85
2022-09-21T06:04:35.785Z,10.97
2022-09-21T06:07:04.345Z,11.13
2022-09-21T06:09:34.147Z,10.92
2022-09-21T06:12:04.435Z,11.11
2022-09-21T06:14:32.952Z,11.23
2022-09-21T06:17:03.611Z,9.82
2022-09-21T06:19:32.329Z,10.85
2022-09-21T06:22:01.315Z,11.33
2022-09-21T06:24:30.004Z,11.70
2022-09-21T06:27:00.373Z,10.82
2022-09-21T06:29:29.779Z,11.28
2022-09-21T06:31:59.929Z,11.23
2022-09-21T06:34:28.590Z,10.51
2022-09-21T06:36:57.082Z,11.49
2022-09-21T06:39:26.003Z,11.28
2022-09-21T06:41:55.079Z,12.38
2022-09-21T06:44:25.472Z,12.40
2022-09-21T06:46:54.219Z,12.40
2022-09-21T06:49:22.878Z,12.76
2022-09-21T06:51:52.498Z,12.66
2022-09-21T06:54:21.509Z,12.88
2022-09-21T06:56:52.223Z,11.76
2022-09-21T06:59:21.161Z,13.01
2022-09-21T07:01:55.798Z,11.99
2022-09-21T07:04:26.096Z,11.95
2022-09-21T07:06:54.855Z,12.23
2022-09-21T07:12:13.445Z,12.70
2022-09-21T07:14:44.464Z,12.13
2022-09-21T07:17:16.135Z,13.58
2022-09-21T07:19:44.887Z,13.90
2022-09-21T07:22:13.679Z,13.49
2022-09-21T07:24:42.400Z,12.62
2022-09-21T07:27:11.057Z,12.69
2022-09-21T07:29:39.783Z,12.72
2022-09-21T07:32:08.471Z,13.37
2022-09-21T07:34:38.964Z,13.50
2022-09-21T07:37:07.692Z,13.88
2022-09-21T07:39:36.775Z,13.62
2022-09-21T07:42:05.753Z,12.94
2022-09-21T07:44:34.518Z,13.39
2022-09-21T07:47:03.527Z,12.71
2022-09-21T07:49:32.311Z,12.89
2022-09-21T07:52:05.759Z,13.79
2022-09-21T07:54:37.384Z,13.24
2022-09-21T07:57:23.288Z,13.55
2022-09-21T07:59:56.489Z,13.09
2022-09-21T08:02:25.341Z,14.42
2022-09-21T08:04:55.087Z,15.00
2022-09-21T08:07:25.362Z,15.13
2022-09-21T08:09:53.987Z,15.50
2022-09-21T08:12:22.676Z,16.28
2022-09-21T08:14:51.644Z,15.71
2022-09-21T08:17:20.322Z,16.07
2022-09-21T08:19:48.942Z,16.97
2022-09-21T08:22:19.083Z,16.25
2022-09-21T08:24:51.856Z,16.62
2022-09-21T08:27:21.312Z,17.51
2022-09-21T08:29:52.407Z,17.48
2022-09-21T08:32:46.620Z,16.32
2022-09-21T08:35:10.649Z,18.07
2022-09-21T08:37:39.207Z,17.92
2022-09-21T08:40:12.231Z,18.08
2022-09-21T08:42:50.888Z,17.29
2022-09-21T08:45:22.575Z,18.35
2022-09-21T08:47:55.075Z,18.19
2022-09-21T08:50:37.296Z,18.48
2022-09-21T08:53:09.474Z,18.70
2022-09-21T08:55:39.478Z,18.46
2022-09-21T08:58:23.872Z,18.70
2022-09-21T09:01:10.268Z,19.11
2022-09-21T09:04:05.888Z,18.57
2022-09-21T09:06:41.881Z,18.30
2022-09-21T09:09:46.103Z,18.42
2022-09-21T09:12:36.471Z,18.60
2022-09-21T09:15:26.138Z,19.09
2022-09-21T09:18:05.416Z,19.18
2022-09-21T09:20:38.716Z,19.33
2022-09-21T09:23:16.260Z,18.49
2022-09-21T09:25:47.675Z,19.16
2022-09-21T09:28:33.908Z,19.67
2022-09-21T09:31:08.003Z,19.66
2022-09-21T09:33:53.207Z,19.87
2022-09-21T09:36:46.643Z,19.59
2022-09-21T09:39:15.334Z,19.70
2022-09-21T09:42:15.189Z,19.78
2022-09-21T09:45:11.854Z,19.93
2022-09-21T09:47:53.705Z,19.87
2022-09-21T09:50:31.809Z,20.06
2022-09-21T09:53:12.189Z,20.10
2022-09-21T09:55:44.056Z,19.61
2022-09-21T09:58:21.111Z,19.83
2022-09-21T10:00:54.748Z,20.14
2022-09-21T10:03:26.110Z,19.72
2022-09-21T10:05:55.750Z,20.41
2022-09-21T10:08:44.617Z,20.42
2022-09-21T10:11:15.875Z,20.95
2022-09-21T10:13:46.832Z,20.65
2022-09-21T10:16:23.053Z,20.98
2022-09-21T10:18:56.328Z,20.67
2022-09-21T10:21:27.566Z,20.73
2022-09-21T10:24:01.188Z,21.70
2022-09-21T10:26:36.017Z,21.50
2022-09-21T10:29:21.408Z,22.03
2022-09-21T10:32:01.405Z,21.68
2022-09-21T10:34:32.122Z,21.44
2022-09-21T10:37:03.567Z,22.23
2022-09-21T10:39:33.076Z,21.68
2022-09-21T10:42:06.846Z,21.93
2022-09-21T10:44:41.431Z,21.62
2022-09-21T10:47:23.061Z,21.03
2022-09-21T10:49:55.158Z,21.43
2022-09-21T10:52:33.388Z,20.37
2022-09-21T10:55:02.574Z,20.90
2022-09-21T10:57:32.678Z,21.05
2022-09-21T11:00:29.419Z,20.27
2022-09-21T11:03:02.715Z,20.91
2022-09-21T11:05:35.779Z,20.75
2022-09-21T11:08:13.668Z,20.32
2022-09-21T11:10:51.731Z,19.89
2022-09-21T11:13:30.889Z,20.71
2022-09-21T11:16:05.853Z,20.57
2022-09-21T11:18:48.026Z,20.56
2022-09-21T11:21:26.308Z,20.57
2022-09-21T11:24:10.752Z,20.67
2022-09-21T11:26:44.988Z,20.47
2022-09-21T11:29:20.991Z,20.17
2022-09-21T11:32:23.952Z,20.59
2022-09-21T11:35:18.608Z,20.52
2022-09-21T11:38:06.456Z,20.56
2022-09-21T11:41:11.830Z,19.90
2022-09-21T11:44:09.446Z,20.45
2022-09-21T11:46:48.923Z,20.50
2022-09-21T11:49:48.347Z,20.19
2022-09-21T11:52:35.446Z,19.20
2022-09-21T11:55:32.899Z,20.32
2022-09-21T11:58:12.344Z,20.17
2022-09-21T12:00:54.858Z,20.35
2022-09-21T12:04:07.500Z,20.66
2022-09-21T12:06:59.638Z,21.11
2022-09-21T12:09:55.630Z,20.48
2022-09-21T12:12:30.967Z,21.40
2022-09-21T12:15:11.418Z,21.87
2022-09-21T12:17:53.693Z,21.45
2022-09-21T12:20:31.036Z,22.83
2022-09-21T12:23:05.131Z,23.50
2022-09-21T12:25:39.856Z,23.85
2022-09-21T12:28:19.398Z,24.10
2022-09-21T12:30:57.308Z,24.55
2022-09-21T12:33:40.480Z,24.35
2022-09-21T12:36:17.310Z,24.66
2022-09-21T12:38:55.009Z,24.75
2022-09-21T12:41:35.551Z,24.60
2022-09-21T12:44:16.696Z,24.83
2022-09-21T12:46:52.592Z,24.40
2022-09-21T12:49:29.902Z,23.75
2022-09-21T12:52:06.361Z,24.49
2022-09-21T12:54:46.850Z,23.58
2022-09-21T12:57:53.638Z,23.32
2022-09-21T13:00:23.407Z,22.80
2022-09-21T13:02:57.020Z,23.74
2022-09-21T13:05:38.398Z,23.21
2022-09-21T13:08:14.201Z,24.04
2022-09-21T13:10:57.663Z,23.97
2022-09-21T13:13:32.359Z,23.50
2022-09-21T13:16:02.620Z,23.93
2022-09-21T13:18:36.212Z,24.33
2022-09-21T13:21:18.670Z,24.33
2022-09-21T13:23:57.067Z,24.65
2022-09-21T13:26:38.169Z,25.07
2022-09-21T13:29:34.317Z,24.85
2022-09-21T13:32:05.195Z,25.30
2022-09-21T13:34:36.349Z,25.12
2022-09-21T13:37:33.005Z,25.38
2022-09-21T13:40:51.168Z,25.79
2022-09-21T13:43:51.583Z,25.98
2022-09-21T13:46:58.712Z,26.13
2022-09-21T13:49:34.846Z,25.86
2022-09-21T13:52:08.189Z,26.23
2022-09-21T13:54:47.368Z,25.85
2022-09-21T13:57:25.407Z,26.28
2022-09-21T14:00:36.554Z,25.91
2022-09-21T14:03:19.801Z,25.78
2022-09-21T14:05:52.546Z,25.86
2022-09-21T14:08:28.109Z,25.78
2022-09-21T14:11:01.305Z,25.61
2022-09-21T14:13:37.137Z,25.87
2022-09-21T14:16:45.694Z,26.05
2022-09-21T14:20:08.374Z,26.12
2022-09-21T14:22:44.836Z,25.60
2022-09-21T14:25:56.089Z,25.48
2022-09-21T14:28:36.905Z,25.34
2022-09-21T14:31:15.639Z,25.49
2022-09-21T14:33:52.056Z,25.48
2022-09-21T14:36:31.337Z,24.65
2022-09-21T14:39:04.530Z,24.17
2022-09-21T14:41:43.176Z,24.54
2022-09-21T14:44:21.991Z,24.47
2022-09-21T14:47:20.774Z,24.43
2022-09-21T14:50:23.922Z,24.42
2022-09-21T14:53:32.575Z,24.34
2022-09-21T14:56:25.845Z,24.60
2022-09-21T14:59:34.907Z,23.96
2022-09-21T15:02:18.038Z,24.74
2022-09-21T15:05:05.615Z,25.08
2022-09-21T15:08:01.090Z,25.00
2022-09-21T15:10:55.105Z,25.18
2022-09-21T15:13:48.812Z,25.13
2022-09-21T15:16:36.824Z,25.20
2022-09-21T15:19:23.317Z,24.86
2022-09-21T15:21:54.456Z,24.52
2022-09-21T15:24:29.564Z,24.88
2022-09-21T15:27:10.398Z,24.63
2022-09-21T15:29:40.510Z,24.56
2022-09-21T15:32:09.273Z,24.35
2022-09-21T15:34:37.975Z,24.30
2022-09-21T15:37:17.589Z,23.75
2022-09-21T15:39:46.402Z,23.98
2022-09-21T15:42:22.890Z,23.47
2022-09-21T15:45:11.802Z,23.70
2022-09-21T15:47:45.056Z,23.37
2022-09-21T15:50:15.842Z,22.05
2022-09-21T15:52:50.732Z,23.36
2022-09-21T15:55:21.621Z,23.34
2022-09-21T15:57:56.519Z,23.04
2022-09-21T16:00:28.056Z,23.10
2022-09-21T16:03:07.963Z,22.88
2022-09-21T16:05:47.351Z,22.72
2022-09-21T16:08:33.587Z,22.96
2022-09-21T16:11:19.019Z,22.70
2022-09-21T16:14:16.295Z,22.60
2022-09-21T16:17:21.351Z,22.50
2022-09-21T16:20:23.609Z,21.46
2022-09-21T16:22:55.540Z,21.38
2022-09-21T16:25:32.557Z,21.28
2022-09-21T16:28:04.007Z,21.16
2022-09-21T16:30:53.461Z,20.77
2022-09-21T16:33:43.115Z,21.36
2022-09-21T16:36:38.009Z,21.05
2022-09-21T16:39:14.979Z,20.98
2022-09-21T16:41:56.067Z,20.51
2022-09-21T16:44:26.932Z,20.73
2022-09-21T16:47:03.443Z,19.98
2022-09-21T16:49:35.701Z,20.50
2022-09-21T16:52:05.378Z,20.41
2022-09-21T16:54:34.678Z,19.83
2022-09-21T16:57:06.350Z,19.97
2022-09-21T16:59:36.673Z,19.71
2022-09-21T17:02:06.715Z,19.77
2022-09-21T17:04:36.918Z,19.53
2022-09-21T17:07:06.169Z,18.89
2022-09-21T17:09:38.436Z,19.17
2022-09-21T17:12:11.110Z,18.85
2022-09-21T17:14:45.625Z,18.72
2022-09-21T17:17:21.382Z,18.71
2022-09-21T17:19:56.008Z,18.51
2022-09-21T17:22:25.516Z,18.53
2022-09-21T17:24:54.990Z,18.41
2022-09-21T17:27:26.749Z,17.66
2022-09-21T17:29:56.452Z,17.99
2022-09-21T17:32:26.505Z,18.01
2022-09-21T17:35:02.693Z,17.80
2022-09-21T17:37:33.835Z,17.75
2022-09-21T17:40:04.934Z,17.21
2022-09-21T17:42:42.552Z,17.18
2022-09-21T17:45:25.230Z,17.16
2022-09-21T17:47:56.168Z,17.15
2022-09-21T17:50:27.917Z,15.85
2022-09-21T17:53:15.549Z,16.12
2022-09-21T17:55:54.452Z,16.87
2022-09-21T17:58:42.591Z,16.14
2022-09-21T18:01:24.562Z,16.05
2022-09-21T18:03:55.653Z,16.30
2022-09-21T18:06:26.039Z,15.96
2022-09-21T18:08:55.893Z,16.34
2022-09-21T18:11:48.591Z,16.21
2022-09-21T18:14:29.425Z,15.71
2022-09-21T18:17:15.836Z,15.91
2022-09-21T18:20:07.863Z,15.85
2022-09-21T18:22:55.038Z,15.64
2022-09-21T18:25:30.441Z,15.55
2022-09-21T18:28:03.394Z,15.36
2022-09-21T18:30:32.911Z,15.43
2022-09-21T18:33:13.599Z,14.95
2022-09-21T18:35:57.296Z,15.30
2022-09-21T18:38:36.389Z,14.88
2022-09-21T18:41:16.132Z,15.23
2022-09-21T18:44:04.492Z,14.88
2022-09-21T18:46:53.385Z,14.95
2022-09-21T18:49:59.914Z,14.71
2022-09-21T18:52:48.335Z,14.47
2022-09-21T18:55:27.038Z,14.79
2022-09-21T18:57:57.213Z,14.85
2022-09-21T19:00:31.558Z,14.74
2022-09-21T19:03:18.854Z,14.83
2022-09-21T19:06:04.185Z,14.46
2022-09-21T19:08:44.351Z,14.50
2022-09-21T19:11:23.166Z,14.56
2022-09-21T19:14:00.899Z,14.39
2022-09-21T19:16:35.100Z,13.38
2022-09-21T19:19:19.100Z,14.42
2022-09-21T19:21:55.273Z,14.14
2022-09-21T19:24:33.368Z,14.21
2022-09-21T19:27:16.218Z,14.32
2022-09-21T19:30:01.106Z,13.94
2022-09-21T19:32:44.840Z,14.16
2022-09-21T19:35:23.761Z,13.98
2022-09-21T19:37:57.784Z,13.87
2022-09-21T19:40:32.294Z,13.72
2022-09-21T19:43:20.093Z,13.58
2022-09-21T19:46:05.544Z,13.21
2022-09-21T19:48:42.824Z,13.86
2022-09-21T19:51:20.429Z,13.73
2022-09-21T19:54:14.845Z,13.68
2022-09-21T19:57:07.856Z,13.72
2022-09-21T19:59:45.711Z,12.93
2022-09-21T20:02:20.056Z,13.61
2022-09-21T20:05:04.402Z,13.30
2022-09-21T20:07:44.882Z,13.30
2022-09-21T20:10:43.837Z,13.48
2022-09-21T20:13:25.065Z,12.84
2022-09-21T20:16:06.753Z,13.34
2022-09-21T20:18:46.387Z,12.71
2022-09-21T20:21:19.662Z,13.04
2022-09-21T20:23:52.221Z,13.32
2022-09-21T20:26:25.937Z,13.20
2022-09-21T20:28:57.191Z,13.26
2022-09-21T20:31:27.453Z,12.63
2022-09-21T20:33:55.981Z,12.94
2022-09-21T20:36:24.525Z,13.14
2022-09-21T20:38:54.393Z,13.12
2022-09-21T20:41:24.515Z,12.87
2022-09-21T20:43:58.553Z,12.35
2022-09-21T20:46:27.598Z,13.04
2022-09-21T20:49:05.390Z,12.95
2022-09-21T20:51:34.522Z,12.73
2022-09-21T20:54:03.410Z,12.66
2022-09-21T20:56:32.528Z,12.47
2022-09-21T20:59:02.425Z,12.68
2022-09-21T21:01:37.650Z,11.92
2022-09-21T21:04:13.191Z,11.68
2022-09-21T21:06:50.666Z,12.68
2022-09-21T21:09:19.184Z,12.42
2022-09-21T21:11:47.902Z,11.81
2022-09-21T21:14:17.759Z,12.31
2022-09-21T21:16:46.228Z,12.40
2022-09-21T21:19:15.252Z,12.58
2022-09-21T21:21:43.679Z,12.53
2022-09-21T21:24:30.051Z,12.61
2022-09-21T21:27:02.089Z,12.61
2022-09-21T21:29:33.169Z,12.20
2022-09-21T21:32:02.502Z,12.42
2022-09-21T21:34:31.322Z,12.48
2022-09-21T21:37:00.133Z,12.46
2022-09-21T21:39:28.650Z,11.93
2022-09-21T21:41:57.248Z,12.08
2022-09-21T21:44:25.690Z,12.22
2022-09-21T21:47:02.790Z,12.18
2022-09-21T21:49:43.895Z,11.40
2022-09-21T21:52:13.322Z,12.23
2022-09-21T21:54:41.782Z,11.61
2022-09-21T21:57:10.387Z,12.21
2022-09-21T21:59:38.855Z,12.11
2022-09-21T22:02:08.624Z,12.11
2022-09-21T22:04:37.171Z,12.07
2022-09-21T22:07:05.931Z,11.99
2022-09-21T22:09:34.406Z,11.74
2022-09-21T22:12:03.858Z,11.97
2022-09-21T22:14:32.339Z,12.01
2022-09-21T22:17:01.318Z,11.97
2022-09-21T22:19:31.139Z,12.00
2022-09-21T22:21:59.929Z,11.11
2022-09-21T22:24:28.562Z,11.98
2022-09-21T22:26:57.007Z,11.94
2022-09-21T22:29:25.596Z,11.12
2022-09-21T22:31:55.289Z,11.17
2022-09-21T22:34:23.869Z,11.48
2022-09-21T22:36:56.364Z,11.53
2022-09-21T22:39:24.829Z,11.38
2022-09-21T22:41:53.410Z,11.38
2022-09-21T22:44:21.876Z,11.69
2022-09-21T22:46:51.235Z,11.46
2022-09-21T22:49:19.713Z,10.96
2022-09-21T22:51:48.451Z,11.44
2022-09-21T22:54:18.222Z,11.63
2022-09-21T22:56:46.642Z,11.65
2022-09-21T22:59:15.173Z,11.56
2022-09-21T23:01:43.704Z,11.60
2022-09-21T23:04:14.363Z,10.88
2022-09-21T23:06:45.465Z,11.46
2022-09-21T23:09:16.262Z,11.41
2022-09-21T23:11:48.890Z,11.42
2022-09-21T23:14:18.144Z,11.15
2022-09-21T23:16:47.229Z,10.41
2022-09-21T23:19:16.487Z,11.40
2022-09-21T23:21:50.123Z,11.23
2022-09-21T23:24:19.511Z,11.33
2022-09-21T23:26:51.894Z,11.25
2022-09-21T23:29:20.875Z,10.36
2022-09-21T23:31:51.334Z,10.39
2022-09-21T23:34:19.844Z,11.30
2022-09-21T23:36:48.246Z,9.86
2022-09-21T23:39:17.263Z,11.29
2022-09-21T23:41:46.016Z,10.63
2022-09-21T23:44:15.804Z,10.90
2022-09-21T23:46:44.291Z,11.07
2022-09-21T23:49:12.883Z,10.34
2022-09-21T23:51:41.905Z,11.15
2022-09-21T23:54:10.903Z,10.35
2022-09-21T23:56:39.202Z,10.50
2022-09-21T23:59:08.021Z,10.93
